Terminal Aerodrome Forecast
Issued by NWS

Home | Current Version | Previous Version | Text Only | Print | Product List | Glossary On
Versions: 1 2 3 4 5 6 7 8 9 10 11 12
603
FTUS43 KBIS 300540
TAFMOT
TAF
KMOT 300540Z 3006/0106 13008KT P6SM BKN150 WS020/17035KT
     FM301000 16010KT P6SM VCSH OVC120 WS020/18035KT
     FM301300 13011G19KT P6SM OVC090
     FM010200 13010KT P6SM SCT150=

USA.gov is the U.S. government's official web portal to all federal, state and local government web resources and services.